aviador You're here:

CYZU Decoded Metar

WHITECOURT in AB, CANADA
Report Time2017-10-20 15:00:00
UTC Time2017-10-20 15:50:51
Flight Rules vfr VFR
Wind300° at 06 kt
W.Decomp.*RWY 29: 5.9 kt HW 0.9 kt LCW
W.Rank300° ranks 1
Current wind is below 300° avg. (8.9)
Visibility9999 m
Phenomena:N/A
Clouds:Few 040 Hf
Overcast 085 Hf
Expected CloudBase > 2,000 ft AGL from Temp-Dew spread
Ceiling8,500 ft
Temp05°C (ISA -5)
Dew Point00°C (70% RH)
AAT0.9°C
QNH993 hPa
Density Alt2,766 ft
Elevation2,575 ft
Report Wrong Elevation
Raw Report
CYZU 201500Z 30006KT 15SM FEW040 OVC085 05/00 A2932 RMK SC2AC6
SLP948 DENSITY ALT 2700FT=

Extra information for CYZU:More info

Metar Taf Metar & Taf Last 4 Metars F.Rules Stats Wind Profile Meteogram Temp Stats Airport Information Weather charts Add Link Nearby VenuesMetar ALERT Operation Metar Decoded Social comments